Time;durP1;ratioP1;P1;durP2;ratioP2;P2;SDS_P1;SDS_P2;PMS_P1;PMS_P2;Temp;Humidity;BMP_temperature;BMP_pressure;BME280_temperature;BME280_humidity;BME280_pressure;Samples;Min_cycle;Max_cycle;Signal;HPM_P1;HPM_P2
2022/01/02 00:02:03;;;;;;;16.52;7.53;;;12.60;99.90;;;;;;5097751;27;38760;-75
2022/01/02 00:04:33;;;;;;;13.70;7.23;;;12.60;99.90;;;;;;5104713;27;48610;-75
2022/01/02 00:07:03;;;;;;;17.17;8.00;;;12.60;99.90;;;;;;5069394;28;39853;-75
2022/01/02 00:09:31;;;;;;;17.25;7.80;;;12.60;99.90;;;;;;5053549;28;47496;-75
2022/01/02 00:12:23;;;;;;;25.23;8.95;;;12.60;99.90;;;;;;5077762;28;39509;-75
2022/01/02 00:14:54;;;;;;;15.50;7.50;;;12.60;99.90;;;;;;5077667;28;48496;-75
2022/01/02 00:17:23;;;;;;;16.17;7.83;;;12.60;99.90;;;;;;5080749;28;38653;-75
2022/01/02 00:19:55;;;;;;;13.88;7.30;;;12.50;99.90;;;;;;5076118;28;38424;-75
2022/01/02 00:22:29;;;;;;;15.13;7.57;;;12.50;99.90;;;;;;5081362;28;38874;-75
2022/01/02 00:24:57;;;;;;;18.83;7.43;;;12.50;99.90;;;;;;5084020;28;39156;-75
2022/01/02 00:27:24;;;;;;;15.53;7.53;;;12.50;99.90;;;;;;5065603;28;39319;-74
2022/01/02 00:29:51;;;;;;;16.58;7.38;;;12.60;99.90;;;;;;5087112;28;37201;-74
2022/01/02 00:32:17;;;;;;;18.00;6.78;;;12.50;99.90;;;;;;5080999;28;38725;-74
2022/01/02 00:34:48;;;;;;;20.38;7.75;;;12.50;99.90;;;;;;5083255;28;38347;-74
2022/01/02 00:37:14;;;;;;;15.98;8.27;;;12.50;99.90;;;;;;5068680;28;39488;-75
2022/01/02 00:39:43;;;;;;;18.97;8.40;;;12.50;99.90;;;;;;5088266;28;36831;-75
2022/01/02 00:42:14;;;;;;;16.77;8.20;;;12.50;99.90;;;;;;5074565;28;38781;-74
2022/01/02 00:45:03;;;;;;;15.13;7.37;;;12.50;99.90;;;;;;5076308;28;38419;-74
2022/01/02 00:47:59;;;;;;;17.73;8.27;;;12.50;99.90;;;;;;5071785;28;47989;-74
2022/01/02 00:50:38;;;;;;;18.47;7.80;;;12.50;99.90;;;;;;5080694;28;36965;-75
2022/01/02 00:53:09;;;;;;;16.47;7.40;;;12.50;99.90;;;;;;5059894;28;39825;-75
2022/01/02 00:55:36;;;;;;;17.00;8.02;;;12.50;99.90;;;;;;5061239;28;40188;-74
2022/01/02 00:58:14;;;;;;;19.17;9.20;;;12.50;99.90;;;;;;5095292;27;38828;-75
2022/01/02 01:00:56;;;;;;;17.65;8.23;;;12.60;99.90;;;;;;5066544;28;39041;-75
2022/01/02 01:03:30;;;;;;;22.30;8.33;;;12.60;99.90;;;;;;5091943;28;38891;-73
2022/01/02 01:05:59;;;;;;;16.95;7.78;;;12.60;99.90;;;;;;5088061;28;39048;-74
2022/01/02 01:08:29;;;;;;;16.13;8.00;;;12.60;99.90;;;;;;5088917;27;37252;-74
2022/01/02 01:10:56;;;;;;;14.35;7.18;;;12.60;99.90;;;;;;5081581;28;36117;-74
2022/01/02 01:13:23;;;;;;;16.73;7.70;;;12.70;99.90;;;;;;5090961;28;38991;-75
2022/01/02 01:15:50;;;;;;;16.42;7.35;;;12.60;99.90;;;;;;5070791;28;37467;-75
2022/01/02 01:18:16;;;;;;;20.65;7.22;;;12.70;99.90;;;;;;5069588;28;37317;-75
2022/01/02 01:20:44;;;;;;;12.27;5.70;;;12.70;99.90;;;;;;5081711;28;37243;-74
2022/01/02 01:23:16;;;;;;;13.18;5.78;;;12.80;99.90;;;;;;5081859;28;38751;-75
2022/01/02 01:25:45;;;;;;;14.13;5.97;;;12.80;99.90;;;;;;5058509;28;38838;-74
2022/01/02 01:28:12;;;;;;;13.07;5.63;;;12.90;99.90;;;;;;5082023;28;39430;-74
2022/01/02 01:30:38;;;;;;;12.95;4.82;;;13.00;99.90;;;;;;5085099;28;37363;-74
2022/01/02 01:33:05;;;;;;;11.77;5.13;;;13.00;99.90;;;;;;5079513;28;39092;-74
2022/01/02 01:35:31;;;;;;;13.13;5.95;;;13.10;99.90;;;;;;5073041;28;40466;-75
2022/01/02 01:37:57;;;;;;;12.30;5.25;;;13.10;99.90;;;;;;5073889;28;38926;-74
2022/01/02 01:40:23;;;;;;;12.20;5.40;;;13.20;99.90;;;;;;5065583;28;37124;-74
2022/01/02 01:42:59;;;;;;;16.35;5.30;;;13.10;99.90;;;;;;5081960;28;38910;-75
2022/01/02 01:47:54;;;;;;;16.63;5.35;;;13.10;99.90;;;;;;5094533;28;38042;-74
2022/01/02 01:50:26;;;;;;;18.35;5.63;;;13.10;99.90;;;;;;5085944;28;40712;-74
2022/01/02 01:52:53;;;;;;;15.32;5.63;;;13.20;99.90;;;;;;5075129;28;40577;-74
2022/01/02 01:55:19;;;;;;;16.90;5.10;;;13.20;99.90;;;;;;5064756;28;39742;-74
2022/01/02 01:57:46;;;;;;;11.20;5.13;;;13.10;99.90;;;;;;5064013;28;38454;-75
2022/01/02 02:00:18;;;;;;;20.95;5.63;;;13.10;99.90;;;;;;5059355;28;37708;-74
2022/01/02 02:02:44;;;;;;;19.83;5.60;;;13.10;99.90;;;;;;5081451;28;39851;-74
2022/01/02 02:05:12;;;;;;;14.60;4.63;;;13.20;99.90;;;;;;5087157;27;38893;-74
2022/01/02 02:07:43;;;;;;;15.98;4.68;;;13.10;99.90;;;;;;5110978;27;38118;-74
2022/01/02 02:10:14;;;;;;;17.02;5.90;;;13.10;99.90;;;;;;5096547;27;37633;-74
2022/01/02 02:12:45;;;;;;;18.08;5.00;;;13.20;99.90;;;;;;5102759;27;38604;-74
2022/01/02 02:15:13;;;;;;;14.30;4.70;;;13.20;99.90;;;;;;5099142;27;39195;-74
2022/01/02 02:17:40;;;;;;;16.15;4.50;;;13.30;99.90;;;;;;5087565;27;38779;-73
2022/01/02 02:20:14;;;;;;;13.68;4.82;;;13.30;99.90;;;;;;5087060;28;38104;-74
2022/01/02 02:22:42;;;;;;;16.67;5.57;;;13.30;99.90;;;;;;5104242;27;38896;-74
2022/01/02 02:25:10;;;;;;;16.00;4.95;;;13.40;99.90;;;;;;5094465;27;39483;-75
2022/01/02 02:27:36;;;;;;;11.05;4.85;;;13.40;99.90;;;;;;5085655;27;39253;-74
2022/01/02 02:30:04;;;;;;;16.33;4.45;;;13.50;99.90;;;;;;5079082;27;37217;-74
2022/01/02 02:32:30;;;;;;;17.55;5.53;;;13.50;99.90;;;;;;5076894;28;39407;-74
2022/01/02 02:34:56;;;;;;;11.60;4.40;;;13.50;99.90;;;;;;5083432;27;39794;-74
2022/01/02 02:37:24;;;;;;;17.52;4.63;;;13.50;99.90;;;;;;5086889;27;38930;-74
2022/01/02 02:39:51;;;;;;;15.93;4.35;;;13.50;99.90;;;;;;5095296;27;37852;-74
2022/01/02 02:42:32;;;;;;;17.17;4.90;;;13.50;99.90;;;;;;5109976;27;38698;-74
2022/01/02 02:48:59;;;;;;;12.98;3.63;;;13.50;99.90;;;;;;5102832;27;38969;-74
2022/01/02 02:50:45;;;;;;;16.95;4.30;;;13.50;99.90;;;;;;5087020;27;49312;-74
2022/01/02 02:53:16;;;;;;;19.15;4.28;;;13.60;99.90;;;;;;5101555;27;38884;-74
2022/01/02 02:55:48;;;;;;;17.88;4.78;;;13.70;99.90;;;;;;5099556;27;39123;-74
2022/01/02 02:58:56;;;;;;;14.02;5.15;;;13.80;99.90;;;;;;5100228;27;38191;-75
2022/01/02 03:01:03;;;;;;;12.50;4.32;;;13.80;99.90;;;;;;5094475;27;37706;-74
2022/01/02 03:03:31;;;;;;;12.98;4.13;;;13.80;99.90;;;;;;5095859;27;40553;-74
2022/01/02 03:05:57;;;;;;;19.90;5.28;;;13.80;99.90;;;;;;5084214;27;38903;-74
2022/01/02 03:08:23;;;;;;;9.32;3.90;;;13.80;99.90;;;;;;5090989;27;36579;-74
2022/01/02 03:10:49;;;;;;;18.63;4.82;;;13.80;99.90;;;;;;5089335;27;36863;-74
2022/01/02 03:13:15;;;;;;;16.75;4.95;;;13.70;99.90;;;;;;5074817;27;40349;-75
2022/01/02 03:15:41;;;;;;;15.75;4.70;;;13.70;99.90;;;;;;5087174;27;39858;-73
2022/01/02 03:18:07;;;;;;;16.25;4.03;;;13.70;99.90;;;;;;5105548;27;38157;-73
2022/01/02 03:20:33;;;;;;;19.33;3.88;;;13.70;99.90;;;;;;5096595;27;37961;-74
2022/01/02 03:22:59;;;;;;;12.18;3.95;;;13.80;99.90;;;;;;5083682;27;38647;-74
2022/01/02 03:25:25;;;;;;;14.20;3.80;;;13.80;99.90;;;;;;5100169;27;38358;-74
2022/01/02 03:27:51;;;;;;;15.98;4.20;;;13.70;99.90;;;;;;5101496;27;39912;-74
2022/01/02 03:30:17;;;;;;;11.02;3.63;;;13.80;99.90;;;;;;5102260;27;37927;-73
2022/01/02 03:32:43;;;;;;;18.00;4.47;;;13.80;99.90;;;;;;5090401;28;39325;-73
2022/01/02 03:35:09;;;;;;;12.73;4.65;;;13.80;99.90;;;;;;5097903;27;38318;-73
2022/01/02 03:37:36;;;;;;;16.13;4.65;;;13.80;99.90;;;;;;5097205;27;37885;-73
2022/01/02 03:40:06;;;;;;;14.65;4.40;;;13.70;99.90;;;;;;5097183;27;37860;-74
2022/01/02 03:42:34;;;;;;;15.57;4.93;;;13.70;99.90;;;;;;5096099;27;47338;-74
2022/01/02 03:45:00;;;;;;;12.57;4.43;;;13.60;99.90;;;;;;5093521;27;38111;-73
2022/01/02 03:47:27;;;;;;;13.40;4.53;;;13.50;99.90;;;;;;5098677;27;37753;-73
2022/01/02 03:49:53;;;;;;;14.93;4.72;;;13.50;99.90;;;;;;5099094;27;37296;-74
2022/01/02 03:52:19;;;;;;;12.30;4.93;;;13.40;99.90;;;;;;5102581;27;38972;-73
2022/01/02 03:54:45;;;;;;;9.57;3.90;;;13.40;99.90;;;;;;5098820;27;38222;-73
2022/01/02 03:57:12;;;;;;;12.95;4.78;;;13.40;99.90;;;;;;5080244;27;38730;-73
2022/01/02 03:59:38;;;;;;;16.25;5.03;;;13.40;99.90;;;;;;5097788;27;37256;-74
2022/01/02 04:02:04;;;;;;;14.82;4.07;;;13.30;99.90;;;;;;5100538;27;38709;-73
2022/01/02 04:04:30;;;;;;;13.48;5.90;;;13.30;99.90;;;;;;5099416;27;38654;-74
2022/01/02 04:06:56;;;;;;;17.67;5.05;;;13.30;99.90;;;;;;5079560;28;40357;-74
2022/01/02 04:09:22;;;;;;;17.05;4.97;;;13.30;99.90;;;;;;5096875;27;36507;-74
2022/01/02 04:11:48;;;;;;;12.35;4.75;;;13.30;99.90;;;;;;5081553;28;39640;-73
2022/01/02 04:14:14;;;;;;;16.00;5.07;;;13.30;99.90;;;;;;5084698;27;37263;-73
2022/01/02 04:16:41;;;;;;;14.57;4.78;;;13.30;99.90;;;;;;5096073;27;38384;-74
2022/01/02 04:19:07;;;;;;;13.68;5.43;;;13.30;99.90;;;;;;5092618;27;38739;-74
2022/01/02 04:21:33;;;;;;;12.40;4.80;;;13.30;99.90;;;;;;5084961;27;40585;-74
2022/01/02 04:23:59;;;;;;;16.63;5.18;;;13.30;99.90;;;;;;5079382;27;38692;-74
2022/01/02 04:26:25;;;;;;;11.50;4.60;;;13.30;99.90;;;;;;5098513;27;38324;-74
2022/01/02 04:28:51;;;;;;;20.80;4.63;;;13.30;99.90;;;;;;5091534;27;37989;-73
2022/01/02 04:31:17;;;;;;;12.25;4.70;;;13.30;99.90;;;;;;5086082;27;39951;-74
2022/01/02 04:33:43;;;;;;;10.30;4.10;;;13.20;99.90;;;;;;5097595;27;38434;-73
2022/01/02 04:36:09;;;;;;;17.20;5.20;;;13.20;99.90;;;;;;5098132;27;36367;-74
2022/01/02 04:38:37;;;;;;;19.90;4.90;;;13.20;99.90;;;;;;5082748;28;37537;-74
2022/01/02 04:41:03;;;;;;;11.85;4.93;;;13.20;99.90;;;;;;5097055;27;39012;-74
2022/01/02 04:43:30;;;;;;;20.38;5.38;;;13.20;99.90;;;;;;5103634;27;38994;-74
2022/01/02 04:45:59;;;;;;;18.70;4.72;;;13.20;99.90;;;;;;5104050;27;39124;-74
2022/01/02 04:48:25;;;;;;;10.43;4.63;;;13.20;99.90;;;;;;5087851;27;38174;-74
2022/01/02 04:50:51;;;;;;;14.10;4.45;;;13.20;99.90;;;;;;5096376;27;39499;-73
2022/01/02 04:53:19;;;;;;;17.85;4.53;;;13.20;99.90;;;;;;5108557;27;38451;-74
2022/01/02 04:55:46;;;;;;;14.48;5.03;;;13.20;99.90;;;;;;5099337;27;37977;-74
2022/01/02 04:58:12;;;;;;;12.57;4.43;;;13.20;99.90;;;;;;5100893;27;37256;-74
2022/01/02 05:00:38;;;;;;;15.27;5.20;;;13.20;99.90;;;;;;5078792;27;39374;-74
2022/01/02 05:03:04;;;;;;;12.15;4.53;;;13.20;99.90;;;;;;5088941;28;38878;-75
2022/01/02 05:05:30;;;;;;;10.20;4.28;;;13.20;99.90;;;;;;5087581;27;38194;-73
2022/01/02 05:07:56;;;;;;;9.80;4.32;;;13.20;99.90;;;;;;5113322;27;37044;-75
2022/01/02 05:10:22;;;;;;;12.48;4.30;;;13.20;99.90;;;;;;5097181;27;38865;-76
2022/01/02 05:12:49;;;;;;;9.10;4.40;;;13.20;99.90;;;;;;5102713;27;39292;-76
2022/01/02 05:15:15;;;;;;;15.60;4.65;;;13.20;99.90;;;;;;5085910;27;38861;-75
2022/01/02 05:17:43;;;;;;;10.43;4.22;;;13.20;99.90;;;;;;5083548;27;38023;-74
2022/01/02 05:20:09;;;;;;;14.55;4.60;;;13.20;99.90;;;;;;5105956;27;38587;-75
2022/01/02 05:22:35;;;;;;;10.15;3.97;;;13.30;99.90;;;;;;5088799;27;39115;-74
2022/01/02 05:25:01;;;;;;;15.40;4.78;;;13.30;99.90;;;;;;5096545;27;38094;-74
2022/01/02 05:27:27;;;;;;;9.18;4.47;;;13.30;99.90;;;;;;5101665;27;40320;-74
2022/01/02 05:29:53;;;;;;;10.93;4.70;;;13.20;99.90;;;;;;5082150;28;40071;-74
2022/01/02 05:32:19;;;;;;;11.50;4.13;;;13.30;99.90;;;;;;5091202;27;38195;-74
2022/01/02 05:34:45;;;;;;;10.15;3.97;;;13.30;99.90;;;;;;5111435;27;37850;-74
2022/01/02 05:37:11;;;;;;;11.35;4.47;;;13.30;99.90;;;;;;5114015;27;36809;-74
2022/01/02 05:39:37;;;;;;;12.80;4.40;;;13.40;99.90;;;;;;5097605;27;39684;-74
2022/01/02 05:42:04;;;;;;;14.43;4.30;;;13.40;99.90;;;;;;5099201;27;38802;-73
2022/01/02 05:44:30;;;;;;;8.27;4.38;;;13.30;99.90;;;;;;5102920;27;38323;-74
2022/01/02 05:46:57;;;;;;;11.25;4.22;;;13.30;99.90;;;;;;5083890;27;36109;-74
2022/01/02 05:49:24;;;;;;;10.57;3.97;;;13.30;99.90;;;;;;5103051;27;38783;-74
2022/01/02 05:51:50;;;;;;;11.82;4.35;;;13.30;99.90;;;;;;5101009;27;38475;-76
2022/01/02 05:54:16;;;;;;;16.83;4.53;;;13.30;99.90;;;;;;5101482;27;38072;-74
2022/01/02 05:56:42;;;;;;;10.23;4.30;;;13.30;99.90;;;;;;5087781;27;36096;-75
2022/01/02 05:59:08;;;;;;;9.50;4.47;;;13.20;99.90;;;;;;5101467;27;38779;-73
2022/01/02 06:01:34;;;;;;;11.57;4.65;;;13.20;99.90;;;;;;5081160;27;37398;-74
2022/01/02 06:04:00;;;;;;;10.77;4.22;;;13.20;99.90;;;;;;5090803;27;38121;-74
2022/01/02 06:06:26;;;;;;;13.93;4.07;;;13.20;99.90;;;;;;5082825;28;47396;-74
2022/01/02 06:08:53;;;;;;;12.10;4.32;;;13.20;99.90;;;;;;5084675;28;40924;-75
2022/01/02 06:11:19;;;;;;;9.02;3.85;;;13.20;99.90;;;;;;5084390;27;37591;-74
2022/01/02 06:13:45;;;;;;;10.30;4.15;;;13.30;99.90;;;;;;5085628;27;39744;-73
2022/01/02 06:16:12;;;;;;;9.25;4.00;;;13.30;99.90;;;;;;5094046;27;36205;-74
2022/01/02 06:18:38;;;;;;;9.20;3.55;;;13.40;99.90;;;;;;5101248;27;38353;-73
2022/01/02 06:21:04;;;;;;;7.28;3.10;;;13.40;99.90;;;;;;5092967;27;38473;-73
2022/01/02 06:23:30;;;;;;;8.45;3.38;;;13.40;99.90;;;;;;5083073;27;38391;-75
2022/01/02 06:25:57;;;;;;;8.45;3.30;;;13.30;99.90;;;;;;5102001;27;36732;-75
2022/01/02 06:28:23;;;;;;;10.50;3.45;;;13.30;99.90;;;;;;5091906;27;37823;-74
2022/01/02 06:30:49;;;;;;;7.40;3.78;;;13.30;99.90;;;;;;5074153;28;39512;-74
2022/01/02 06:33:15;;;;;;;12.60;4.20;;;13.30;99.90;;;;;;5076120;27;39029;-74
2022/01/02 06:35:41;;;;;;;7.70;2.75;;;13.40;99.90;;;;;;5103815;27;37702;-74
2022/01/02 06:38:16;;;;;;;9.73;3.90;;;13.40;99.90;;;;;;5088196;28;39653;-74
2022/01/02 06:40:43;;;;;;;9.23;3.30;;;13.40;99.90;;;;;;5085516;28;39255;-74
2022/01/02 06:43:09;;;;;;;7.97;3.25;;;13.50;99.90;;;;;;5084290;27;38264;-74
2022/01/02 06:45:36;;;;;;;8.65;3.10;;;13.50;99.90;;;;;;5094384;27;37410;-74
2022/01/02 06:48:03;;;;;;;9.45;3.80;;;13.40;99.90;;;;;;5089627;27;39168;-75
2022/01/02 06:50:30;;;;;;;11.25;4.10;;;13.50;99.90;;;;;;5107910;27;38193;-74
2022/01/02 06:52:56;;;;;;;8.93;3.83;;;13.60;99.90;;;;;;5102532;27;39065;-74
2022/01/02 06:55:23;;;;;;;10.05;3.63;;;13.60;99.90;;;;;;5086587;28;37610;-74
2022/01/02 06:57:49;;;;;;;8.00;4.30;;;13.50;99.90;;;;;;5084665;27;39419;-74
2022/01/02 07:00:15;;;;;;;13.25;4.70;;;13.50;99.90;;;;;;5088197;27;39217;-74
2022/01/02 07:02:41;;;;;;;10.98;3.83;;;13.40;99.90;;;;;;5085588;27;37558;-74
2022/01/02 07:05:07;;;;;;;7.85;3.90;;;13.30;99.90;;;;;;5082305;28;38409;-74
2022/01/02 07:07:43;;;;;;;9.10;3.28;;;13.20;99.90;;;;;;5099535;27;38666;-73
2022/01/02 07:10:11;;;;;;;7.85;3.90;;;13.20;99.90;;;;;;5096156;27;36458;-74
2022/01/02 07:12:38;;;;;;;10.40;3.85;;;13.10;99.90;;;;;;5097091;27;38524;-74
2022/01/02 07:15:06;;;;;;;8.27;3.15;;;13.10;99.90;;;;;;5085201;27;37978;-74
2022/01/02 07:17:32;;;;;;;13.23;4.05;;;13.10;99.90;;;;;;5083815;27;39419;-74
2022/01/02 07:19:58;;;;;;;7.90;2.92;;;13.10;99.90;;;;;;5094288;27;39408;-74
2022/01/02 07:22:24;;;;;;;8.80;3.30;;;13.10;99.90;;;;;;5083800;27;41175;-74
2022/01/02 07:24:51;;;;;;;7.65;3.60;;;13.10;99.90;;;;;;5084258;28;37843;-75
2022/01/02 07:27:21;;;;;;;11.38;3.83;;;13.10;99.90;;;;;;5096730;27;39761;-74
2022/01/02 07:29:48;;;;;;;10.13;3.75;;;13.10;99.90;;;;;;5077574;27;38841;-74
2022/01/02 07:32:15;;;;;;;9.25;3.67;;;13.00;99.90;;;;;;5087594;27;38673;-74
2022/01/02 07:34:42;;;;;;;9.32;3.50;;;13.00;99.90;;;;;;5076683;27;39028;-74
2022/01/02 07:37:11;;;;;;;8.90;3.90;;;13.00;99.90;;;;;;5072166;28;39542;-74
2022/01/02 07:39:38;;;;;;;9.20;4.20;;;12.90;99.90;;;;;;5092502;27;38112;-74
2022/01/02 07:42:04;;;;;;;10.27;3.88;;;12.90;99.90;;;;;;5074064;27;38820;-74
2022/01/02 07:44:31;;;;;;;9.88;3.88;;;12.90;99.90;;;;;;5078579;27;37328;-74
2022/01/02 07:46:57;;;;;;;9.57;4.15;;;13.00;99.90;;;;;;5070357;27;40189;-74
2022/01/02 07:49:23;;;;;;;8.35;4.28;;;13.00;99.90;;;;;;5092750;27;38284;-74
2022/01/02 07:51:49;;;;;;;12.45;4.57;;;13.00;99.90;;;;;;5073671;27;38111;-74
2022/01/02 07:54:15;;;;;;;10.57;4.63;;;13.10;99.90;;;;;;5070870;28;37834;-74
2022/01/02 07:56:41;;;;;;;10.02;5.07;;;13.10;99.90;;;;;;5073293;27;39585;-75
2022/01/02 07:59:08;;;;;;;12.90;4.75;;;13.10;99.90;;;;;;5073611;28;39386;-74
2022/01/02 08:01:34;;;;;;;12.80;4.67;;;13.10;99.90;;;;;;5070550;27;39740;-74
2022/01/02 08:04:00;;;;;;;12.50;4.50;;;13.10;99.90;;;;;;5072691;27;37411;-73
2022/01/02 08:06:26;;;;;;;12.30;4.72;;;13.10;99.90;;;;;;5070447;27;47029;-75
2022/01/02 08:08:52;;;;;;;12.18;5.13;;;13.00;99.90;;;;;;5087835;27;38376;-74
2022/01/02 08:11:19;;;;;;;10.18;4.90;;;13.00;99.90;;;;;;5092058;27;39328;-72
2022/01/02 08:13:45;;;;;;;15.60;5.05;;;13.00;99.90;;;;;;5072091;28;39088;-74
2022/01/02 08:16:12;;;;;;;8.82;5.22;;;13.00;99.90;;;;;;5071855;27;38630;-74
2022/01/02 08:18:39;;;;;;;11.73;4.93;;;12.90;99.90;;;;;;5093116;27;39360;-75
2022/01/02 08:21:05;;;;;;;12.88;4.65;;;12.80;99.90;;;;;;5070554;27;36584;-75
2022/01/02 08:23:32;;;;;;;9.63;4.60;;;12.80;99.90;;;;;;5079350;27;38027;-74
2022/01/02 08:25:59;;;;;;;10.18;4.55;;;12.80;99.90;;;;;;5090734;27;39865;-73
2022/01/02 08:28:25;;;;;;;11.40;4.80;;;12.80;99.90;;;;;;5093156;27;38220;-75
2022/01/02 08:30:52;;;;;;;8.25;4.55;;;12.80;99.90;;;;;;5099091;27;37952;-74
2022/01/02 08:33:18;;;;;;;9.30;5.70;;;12.80;99.90;;;;;;5095204;27;37701;-74
2022/01/02 08:35:45;;;;;;;12.43;4.90;;;12.80;99.90;;;;;;5100093;27;38705;-74
2022/01/02 08:38:12;;;;;;;7.53;4.88;;;12.90;99.90;;;;;;5099200;27;39136;-74
2022/01/02 08:40:39;;;;;;;10.40;4.65;;;12.90;99.90;;;;;;5101780;27;37779;-74
2022/01/02 08:43:08;;;;;;;10.40;4.80;;;12.90;99.90;;;;;;5082013;27;38109;-73
2022/01/02 08:45:36;;;;;;;14.73;5.00;;;12.90;99.90;;;;;;5083331;27;40089;-74
2022/01/02 08:48:03;;;;;;;12.52;5.03;;;12.80;99.90;;;;;;5098687;27;39319;-73
2022/01/02 08:50:29;;;;;;;8.98;5.13;;;12.70;99.90;;;;;;5080787;27;46910;-74
2022/01/02 08:52:55;;;;;;;9.30;4.85;;;12.70;99.90;;;;;;5086000;28;36930;-74
2022/01/02 08:55:21;;;;;;;12.68;6.22;;;12.70;99.90;;;;;;5079170;28;39679;-75
2022/01/02 08:57:47;;;;;;;8.73;4.97;;;12.60;99.90;;;;;;5095235;27;38167;-74
2022/01/02 09:00:14;;;;;;;12.17;5.60;;;12.60;99.90;;;;;;5094637;27;37388;-75
2022/01/02 09:02:40;;;;;;;11.30;5.97;;;12.60;99.90;;;;;;5107576;27;37930;-74
2022/01/02 09:05:08;;;;;;;12.43;6.40;;;12.50;99.90;;;;;;5070954;28;38425;-75
2022/01/02 09:07:35;;;;;;;10.02;6.18;;;12.50;99.90;;;;;;5050096;28;38418;-75
2022/01/02 09:10:03;;;;;;;13.00;6.53;;;12.60;99.90;;;;;;5061054;28;37702;-75
2022/01/02 09:12:29;;;;;;;11.00;5.77;;;12.60;99.90;;;;;;5067062;28;40065;-74
2022/01/02 09:14:55;;;;;;;11.80;6.13;;;12.50;99.90;;;;;;5083098;28;38875;-75
2022/01/02 09:17:21;;;;;;;11.77;5.63;;;12.60;99.90;;;;;;5074836;28;38475;-74
2022/01/02 09:19:49;;;;;;;10.68;5.28;;;12.70;99.90;;;;;;5066142;28;36416;-75
2022/01/02 09:22:15;;;;;;;10.57;5.53;;;12.90;99.90;;;;;;5063764;28;36232;-74
2022/01/02 09:24:41;;;;;;;10.70;5.78;;;13.00;99.90;;;;;;5084368;28;39510;-74
2022/01/02 09:27:07;;;;;;;11.40;5.57;;;13.00;99.90;;;;;;5062738;28;37469;-74
2022/01/02 09:29:33;;;;;;;11.38;6.10;;;13.10;99.90;;;;;;5075094;27;37302;-74
2022/01/02 09:31:59;;;;;;;11.45;5.82;;;13.10;99.90;;;;;;5087878;28;37255;-75
2022/01/02 09:34:26;;;;;;;10.90;5.97;;;13.10;99.90;;;;;;5074548;28;40718;-75
2022/01/02 09:36:51;;;;;;;11.27;5.55;;;13.10;99.90;;;;;;5092147;27;39187;-75
2022/01/02 09:39:18;;;;;;;10.20;5.57;;;13.00;99.90;;;;;;5066647;28;38940;-75
2022/01/02 09:41:44;;;;;;;8.82;6.05;;;12.90;99.90;;;;;;5090872;28;37154;-74
2022/01/02 09:44:10;;;;;;;11.75;6.28;;;12.90;99.90;;;;;;5091973;28;37886;-75
2022/01/02 09:46:39;;;;;;;9.70;6.30;;;12.90;99.90;;;;;;5070619;28;39033;-74
2022/01/02 09:49:05;;;;;;;10.60;5.90;;;12.90;99.90;;;;;;5067766;28;38627;-74
2022/01/02 09:51:31;;;;;;;9.35;5.10;;;12.90;99.90;;;;;;5061200;28;36347;-74
2022/01/02 09:53:58;;;;;;;10.60;5.78;;;13.10;99.90;;;;;;5077843;28;38690;-73
2022/01/02 09:56:24;;;;;;;12.45;5.22;;;13.30;99.90;;;;;;5060251;28;37635;-74
2022/01/02 09:58:51;;;;;;;11.40;5.60;;;13.40;99.90;;;;;;5075115;28;39022;-74
2022/01/02 10:01:19;;;;;;;11.35;5.53;;;13.30;99.90;;;;;;5080438;27;37647;-74
2022/01/02 10:03:51;;;;;;;15.48;5.75;;;13.30;99.90;;;;;;5070062;28;41275;-74
2022/01/02 10:06:18;;;;;;;12.07;5.32;;;13.30;99.90;;;;;;5071394;28;39434;-75
2022/01/02 10:08:46;;;;;;;12.75;5.18;;;13.30;99.90;;;;;;5078623;28;38134;-74
2022/01/02 10:11:21;;;;;;;11.85;5.47;;;13.40;99.90;;;;;;5072445;27;37121;-75
2022/01/02 10:14:02;;;;;;;10.32;5.53;;;13.40;99.90;;;;;;5055840;28;37902;-74
2022/01/02 10:16:37;;;;;;;18.20;6.10;;;13.50;99.90;;;;;;5060068;28;47117;-75
2022/01/02 10:19:29;;;;;;;14.27;5.95;;;13.50;99.90;;;;;;5057203;28;37472;-73
2022/01/02 10:21:59;;;;;;;13.20;5.10;;;13.50;99.90;;;;;;5070604;28;37439;-74
2022/01/02 10:24:29;;;;;;;11.68;5.00;;;13.50;99.90;;;;;;5056926;28;38819;-74
2022/01/02 10:27:09;;;;;;;16.38;5.00;;;13.40;99.90;;;;;;5057243;28;36975;-75
2022/01/02 10:29:54;;;;;;;12.48;5.32;;;13.50;99.90;;;;;;5067463;28;48788;-73
2022/01/02 10:32:30;;;;;;;26.55;4.90;;;13.50;99.90;;;;;;5053613;28;36170;-74
2022/01/02 10:35:18;;;;;;;16.80;5.65;;;13.50;99.90;;;;;;5061710;28;38899;-73
2022/01/02 10:37:58;;;;;;;16.85;4.60;;;13.60;99.90;;;;;;5053872;28;47182;-73
2022/01/02 10:40:38;;;;;;;12.10;3.80;;;13.70;99.90;;;;;;5076914;27;38882;-74
2022/01/02 10:43:33;;;;;;;15.95;4.47;;;13.70;99.90;;;;;;5050991;28;37622;-76
2022/01/02 10:46:06;;;;;;;18.13;4.20;;;13.80;99.90;;;;;;5066144;28;39481;-75
2022/01/02 10:48:41;;;;;;;16.40;4.75;;;13.80;99.90;;;;;;5073161;28;47827;-76
2022/01/02 10:51:17;;;;;;;17.20;4.20;;;13.80;99.90;;;;;;5055139;28;38113;-76
2022/01/02 10:53:57;;;;;;;16.67;3.85;;;13.90;99.90;;;;;;5072106;27;36919;-73
2022/01/02 10:56:26;;;;;;;22.45;4.55;;;14.00;99.90;;;;;;5081421;28;39030;-73
2022/01/02 10:58:52;;;;;;;21.17;5.22;;;14.00;99.90;;;;;;5086044;28;39401;-74
2022/01/02 11:01:20;;;;;;;26.88;6.07;;;14.00;99.90;;;;;;5064564;28;38566;-74
2022/01/02 11:03:47;;;;;;;21.42;5.20;;;14.00;99.90;;;;;;5071019;27;38068;-77
2022/01/02 11:06:32;;;;;;;18.83;4.63;;;14.10;99.90;;;;;;5070654;27;40111;-77
2022/01/02 11:08:59;;;;;;;20.88;4.93;;;14.10;99.90;;;;;;5102602;27;39011;-77
2022/01/02 11:11:26;;;;;;;20.67;4.70;;;14.10;99.90;;;;;;5105233;27;38152;-76
2022/01/02 11:13:52;;;;;;;23.75;4.63;;;14.10;99.90;;;;;;5100173;27;37635;-77
2022/01/02 11:16:18;;;;;;;24.92;5.00;;;14.10;99.90;;;;;;5079623;28;40481;-76
2022/01/02 11:18:46;;;;;;;25.25;4.82;;;14.10;99.90;;;;;;5103087;27;39166;-75
2022/01/02 11:21:13;;;;;;;25.35;4.93;;;14.20;99.90;;;;;;5101773;27;39692;-74
2022/01/02 11:23:45;;;;;;;23.40;4.72;;;14.20;99.90;;;;;;5094679;27;38088;-75
2022/01/02 11:26:20;;;;;;;23.10;4.10;;;14.20;99.90;;;;;;5097367;27;39487;-75
2022/01/02 11:28:48;;;;;;;20.77;4.80;;;14.10;99.90;;;;;;5091270;27;39856;-74
2022/01/02 11:31:40;;;;;;;27.67;6.55;;;14.10;99.90;;;;;;5077943;27;39208;-72
2022/01/02 11:34:25;;;;;;;24.80;5.22;;;14.10;99.90;;;;;;5096902;27;37384;-74
2022/01/02 11:36:52;;;;;;;24.25;4.72;;;14.10;99.90;;;;;;5104159;27;38714;-74
2022/01/02 11:39:19;;;;;;;24.13;5.38;;;14.00;99.90;;;;;;5108121;27;38643;-73
2022/01/02 11:41:53;;;;;;;25.02;5.10;;;14.00;99.90;;;;;;5079531;27;37380;-73
2022/01/02 11:44:22;;;;;;;27.17;6.43;;;14.00;99.90;;;;;;5080841;28;36982;-74
2022/01/02 11:46:55;;;;;;;29.05;5.13;;;14.00;99.90;;;;;;5079823;27;39191;-73
2022/01/02 11:49:25;;;;;;;33.92;5.55;;;13.90;99.90;;;;;;5101257;27;39104;-74
2022/01/02 11:51:54;;;;;;;27.75;4.57;;;14.00;99.90;;;;;;5082035;27;38120;-74
2022/01/02 11:54:32;;;;;;;27.08;4.88;;;14.00;99.90;;;;;;5111934;27;38014;-73
2022/01/02 11:57:23;;;;;;;25.27;5.18;;;14.00;99.90;;;;;;5079379;28;38149;-73
2022/01/02 11:59:49;;;;;;;27.95;5.25;;;14.00;99.90;;;;;;5082958;27;47042;-74
2022/01/02 12:02:26;;;;;;;32.65;5.30;;;14.00;99.90;;;;;;5086887;27;37500;-73
2022/01/02 12:05:14;;;;;;;31.95;5.70;;;14.00;99.90;;;;;;5083913;27;36355;-74
2022/01/02 12:07:45;;;;;;;23.35;5.95;;;14.00;99.90;;;;;;5087903;28;47177;-74
2022/01/02 12:10:17;;;;;;;40.30;6.07;;;14.00;99.90;;;;;;5103440;27;38391;-74
2022/01/02 12:13:24;;;;;;;34.33;5.90;;;14.10;99.90;;;;;;5102187;27;37767;-74
2022/01/02 12:15:51;;;;;;;28.27;5.55;;;14.20;99.90;;;;;;5101360;27;48336;-73
2022/01/02 12:18:20;;;;;;;25.65;6.28;;;14.20;99.90;;;;;;5097476;27;39517;-73
2022/01/02 12:20:52;;;;;;;22.35;5.15;;;14.10;99.90;;;;;;5102419;27;39390;-73
2022/01/02 12:23:33;;;;;;;32.58;5.53;;;14.10;99.90;;;;;;5094800;27;38302;-73
2022/01/02 12:26:08;;;;;;;26.58;4.88;;;14.00;99.90;;;;;;5099482;27;36276;-74
2022/01/02 12:28:42;;;;;;;37.70;5.97;;;13.90;99.90;;;;;;5105854;27;48896;-74
2022/01/02 12:31:10;;;;;;;33.65;6.20;;;13.80;99.90;;;;;;5089597;27;37242;-73
2022/01/02 12:33:37;;;;;;;28.52;5.40;;;13.70;99.90;;;;;;5102244;27;37934;-73
2022/01/02 12:36:13;;;;;;;32.90;5.40;;;13.50;99.90;;;;;;5088042;27;36215;-74
2022/01/02 12:38:57;;;;;;;35.08;5.60;;;13.50;99.90;;;;;;5088391;27;37605;-74
2022/01/02 12:41:26;;;;;;;33.78;6.03;;;13.50;99.90;;;;;;5097665;27;38452;-74
2022/01/02 12:44:00;;;;;;;33.72;6.78;;;13.50;99.90;;;;;;5105007;27;38073;-74
2022/01/02 12:46:35;;;;;;;40.90;7.18;;;13.50;99.90;;;;;;5088020;27;36129;-74
2022/01/02 12:49:02;;;;;;;33.13;6.43;;;13.40;99.90;;;;;;5086468;28;38826;-74
2022/01/02 12:51:30;;;;;;;29.30;6.35;;;13.30;99.90;;;;;;5100997;27;39577;-74
2022/01/02 12:54:00;;;;;;;36.35;6.30;;;13.30;99.90;;;;;;5100678;27;38340;-74